sensor_id;sensor_type;location;lat;lon;timestamp;noise_LAeq;noise_LA_min;noise_LA_max;noise_LA01;noise_LA95
77133;Laerm;26708;50.304;19.028;2024-01-30T00:01:48;46.99;44.42;51.67;;
77133;Laerm;26708;50.304;19.028;2024-01-30T00:03:52;47.03;44.02;50.31;;
77133;Laerm;26708;50.304;19.028;2024-01-30T00:05:57;46.98;44.68;50.05;;
77133;Laerm;26708;50.304;19.028;2024-01-30T00:08:02;47.02;44.60;50.04;;
77133;Laerm;26708;50.304;19.028;2024-01-30T00:10:08;51.10;44.49;67.12;;
77133;Laerm;26708;50.304;19.028;2024-01-30T00:12:13;47.34;44.25;52.76;;
77133;Laerm;26708;50.304;19.028;2024-01-30T00:14:15;47.14;44.63;49.91;;
77133;Laerm;26708;50.304;19.028;2024-01-30T00:16:24;52.69;44.56;70.32;;
77133;Laerm;26708;50.304;19.028;2024-01-30T00:18:30;47.60;44.56;52.99;;
77133;Laerm;26708;50.304;19.028;2024-01-30T00:20:35;47.27;44.52;50.18;;
77133;Laerm;26708;50.304;19.028;2024-01-30T00:22:39;47.17;44.68;49.97;;
77133;Laerm;26708;50.304;19.028;2024-01-30T00:24:45;47.17;44.30;51.72;;
77133;Laerm;26708;50.304;19.028;2024-01-30T00:26:49;47.28;44.67;51.75;;
77133;Laerm;26708;50.304;19.028;2024-01-30T00:28:53;46.98;44.53;49.37;;
77133;Laerm;26708;50.304;19.028;2024-01-30T00:30:59;47.12;44.16;49.65;;
77133;Laerm;26708;50.304;19.028;2024-01-30T00:33:06;47.04;44.05;49.99;;
77133;Laerm;26708;50.304;19.028;2024-01-30T00:35:10;47.02;44.26;49.46;;
77133;Laerm;26708;50.304;19.028;2024-01-30T00:37:13;47.12;44.47;49.84;;
77133;Laerm;26708;50.304;19.028;2024-01-30T00:39:18;47.13;44.69;51.94;;
77133;Laerm;26708;50.304;19.028;2024-01-30T00:41:20;47.51;44.42;53.30;;
77133;Laerm;26708;50.304;19.028;2024-01-30T00:43:26;47.12;44.53;53.72;;
77133;Laerm;26708;50.304;19.028;2024-01-30T00:45:31;49.45;45.03;60.36;;
77133;Laerm;26708;50.304;19.028;2024-01-30T00:47:35;47.61;44.96;52.42;;
77133;Laerm;26708;50.304;19.028;2024-01-30T00:49:43;47.42;44.80;52.62;;
77133;Laerm;26708;50.304;19.028;2024-01-30T00:51:47;47.08;44.51;50.87;;
77133;Laerm;26708;50.304;19.028;2024-01-30T00:53:53;47.01;44.56;49.48;;
77133;Laerm;26708;50.304;19.028;2024-01-30T00:55:58;46.79;44.14;49.34;;
77133;Laerm;26708;50.304;19.028;2024-01-30T00:58:03;46.90;44.10;49.08;;
77133;Laerm;26708;50.304;19.028;2024-01-30T01:00:09;47.35;44.67;52.61;;
77133;Laerm;26708;50.304;19.028;2024-01-30T01:02:14;47.19;44.06;53.67;;
77133;Laerm;26708;50.304;19.028;2024-01-30T01:04:19;46.86;43.96;49.02;;
77133;Laerm;26708;50.304;19.028;2024-01-30T01:06:26;46.85;44.22;49.42;;
77133;Laerm;26708;50.304;19.028;2024-01-30T01:08:31;47.32;44.15;58.73;;
77133;Laerm;26708;50.304;19.028;2024-01-30T01:10:36;46.93;44.44;49.33;;
77133;Laerm;26708;50.304;19.028;2024-01-30T01:12:40;51.00;44.80;57.78;;
77133;Laerm;26708;50.304;19.028;2024-01-30T01:14:46;47.24;44.36;51.74;;
77133;Laerm;26708;50.304;19.028;2024-01-30T01:16:50;46.98;44.52;50.43;;
77133;Laerm;26708;50.304;19.028;2024-01-30T01:18:55;46.99;44.35;49.22;;
77133;Laerm;26708;50.304;19.028;2024-01-30T01:21:00;46.94;44.58;49.18;;
77133;Laerm;26708;50.304;19.028;2024-01-30T01:23:07;47.04;44.50;49.73;;
77133;Laerm;26708;50.304;19.028;2024-01-30T01:25:12;46.94;44.74;49.26;;
77133;Laerm;26708;50.304;19.028;2024-01-30T01:27:17;46.79;43.77;48.93;;
77133;Laerm;26708;50.304;19.028;2024-01-30T01:29:22;47.02;44.17;49.36;;
77133;Laerm;26708;50.304;19.028;2024-01-30T01:31:29;47.05;44.43;49.63;;
77133;Laerm;26708;50.304;19.028;2024-01-30T01:33:35;47.05;44.24;49.17;;
77133;Laerm;26708;50.304;19.028;2024-01-30T01:35:40;47.16;44.91;49.50;;
77133;Laerm;26708;50.304;19.028;2024-01-30T01:37:41;47.36;44.72;50.66;;
77133;Laerm;26708;50.304;19.028;2024-01-30T01:39:49;47.10;44.40;49.18;;
77133;Laerm;26708;50.304;19.028;2024-01-30T01:41:54;47.03;44.63;50.97;;
77133;Laerm;26708;50.304;19.028;2024-01-30T01:43:59;47.14;44.45;51.46;;
77133;Laerm;26708;50.304;19.028;2024-01-30T01:46:05;47.14;44.22;49.75;;
77133;Laerm;26708;50.304;19.028;2024-01-30T01:48:10;47.33;44.67;52.29;;
77133;Laerm;26708;50.304;19.028;2024-01-30T01:50:16;47.96;44.78;56.66;;
77133;Laerm;26708;50.304;19.028;2024-01-30T01:52:21;47.15;44.79;49.38;;
77133;Laerm;26708;50.304;19.028;2024-01-30T01:54:28;47.02;44.30;49.18;;
77133;Laerm;26708;50.304;19.028;2024-01-30T01:56:37;47.23;44.58;49.76;;
77133;Laerm;26708;50.304;19.028;2024-01-30T01:58:47;46.97;44.56;49.77;;
77133;Laerm;26708;50.304;19.028;2024-01-30T02:00:54;47.25;44.73;50.50;;
77133;Laerm;26708;50.304;19.028;2024-01-30T02:03:00;47.56;44.48;53.81;;
77133;Laerm;26708;50.304;19.028;2024-01-30T02:05:07;47.50;44.43;50.47;;
77133;Laerm;26708;50.304;19.028;2024-01-30T02:07:10;49.96;44.86;63.15;;
77133;Laerm;26708;50.304;19.028;2024-01-30T02:09:15;47.28;45.03;49.76;;
77133;Laerm;26708;50.304;19.028;2024-01-30T02:11:23;47.60;44.61;52.61;;
77133;Laerm;26708;50.304;19.028;2024-01-30T02:13:30;50.48;44.31;61.49;;
77133;Laerm;26708;50.304;19.028;2024-01-30T02:15:34;47.59;44.81;51.81;;
77133;Laerm;26708;50.304;19.028;2024-01-30T02:17:40;47.58;44.50;54.60;;
77133;Laerm;26708;50.304;19.028;2024-01-30T02:19:42;46.98;44.33;49.90;;
77133;Laerm;26708;50.304;19.028;2024-01-30T02:21:50;47.33;44.27;51.42;;
77133;Laerm;26708;50.304;19.028;2024-01-30T02:23:59;46.92;44.30;49.25;;
77133;Laerm;26708;50.304;19.028;2024-01-30T02:26:05;47.23;44.74;49.99;;
77133;Laerm;26708;50.304;19.028;2024-01-30T02:28:10;47.16;44.77;49.73;;
77133;Laerm;26708;50.304;19.028;2024-01-30T02:30:15;47.22;44.07;51.03;;
77133;Laerm;26708;50.304;19.028;2024-01-30T02:32:20;57.13;46.32;72.95;;
77133;Laerm;26708;50.304;19.028;2024-01-30T02:34:25;47.50;45.07;52.80;;
77133;Laerm;26708;50.304;19.028;2024-01-30T02:36:30;47.23;44.70;49.65;;
77133;Laerm;26708;50.304;19.028;2024-01-30T02:38:37;47.00;44.22;49.42;;
77133;Laerm;26708;50.304;19.028;2024-01-30T02:40:42;47.65;44.47;51.88;;
77133;Laerm;26708;50.304;19.028;2024-01-30T02:42:44;49.31;45.19;64.99;;
77133;Laerm;26708;50.304;19.028;2024-01-30T02:44:48;47.40;44.78;50.56;;
77133;Laerm;26708;50.304;19.028;2024-01-30T02:46:54;47.57;44.91;50.72;;
77133;Laerm;26708;50.304;19.028;2024-01-30T02:48:58;47.17;44.71;51.24;;
77133;Laerm;26708;50.304;19.028;2024-01-30T02:51:03;52.60;44.32;70.15;;
77133;Laerm;26708;50.304;19.028;2024-01-30T02:53:06;47.44;44.61;54.56;;
77133;Laerm;26708;50.304;19.028;2024-01-30T02:55:13;53.49;44.57;72.18;;
77133;Laerm;26708;50.304;19.028;2024-01-30T02:57:18;48.64;44.42;57.33;;
77133;Laerm;26708;50.304;19.028;2024-01-30T02:59:24;47.05;44.42;50.81;;
77133;Laerm;26708;50.304;19.028;2024-01-30T03:01:28;53.62;44.76;75.54;;
77133;Laerm;26708;50.304;19.028;2024-01-30T03:03:33;49.00;44.85;56.30;;
77133;Laerm;26708;50.304;19.028;2024-01-30T03:05:39;47.61;44.60;53.37;;
77133;Laerm;26708;50.304;19.028;2024-01-30T03:07:43;47.11;44.65;49.73;;
77133;Laerm;26708;50.304;19.028;2024-01-30T03:09:45;47.92;44.85;53.92;;
77133;Laerm;26708;50.304;19.028;2024-01-30T03:11:53;47.64;44.77;52.38;;
77133;Laerm;26708;50.304;19.028;2024-01-30T03:13:57;50.69;44.99;65.41;;
77133;Laerm;26708;50.304;19.028;2024-01-30T03:16:02;47.58;44.70;52.52;;
77133;Laerm;26708;50.304;19.028;2024-01-30T03:18:07;49.42;44.63;63.01;;
77133;Laerm;26708;50.304;19.028;2024-01-30T03:20:12;47.67;44.43;52.00;;
77133;Laerm;26708;50.304;19.028;2024-01-30T03:22:17;47.29;44.65;49.81;;
77133;Laerm;26708;50.304;19.028;2024-01-30T03:24:24;47.39;45.06;50.89;;
77133;Laerm;26708;50.304;19.028;2024-01-30T03:26:28;47.65;44.80;50.71;;
77133;Laerm;26708;50.304;19.028;2024-01-30T03:28:35;47.61;44.39;50.79;;
77133;Laerm;26708;50.304;19.028;2024-01-30T03:30:41;51.43;45.19;66.93;;
77133;Laerm;26708;50.304;19.028;2024-01-30T03:32:45;47.78;44.67;51.71;;
77133;Laerm;26708;50.304;19.028;2024-01-30T03:34:49;47.78;44.61;51.89;;
77133;Laerm;26708;50.304;19.028;2024-01-30T03:36:55;47.46;44.28;50.09;;
77133;Laerm;26708;50.304;19.028;2024-01-30T03:38:59;48.00;44.97;50.83;;
77133;Laerm;26708;50.304;19.028;2024-01-30T03:41:07;47.44;44.52;50.16;;
77133;Laerm;26708;50.304;19.028;2024-01-30T03:43:13;47.80;44.50;55.60;;
77133;Laerm;26708;50.304;19.028;2024-01-30T03:45:20;47.81;44.80;51.04;;
77133;Laerm;26708;50.304;19.028;2024-01-30T03:47:24;47.65;45.21;50.54;;
77133;Laerm;26708;50.304;19.028;2024-01-30T03:49:29;47.60;44.80;53.11;;
77133;Laerm;26708;50.304;19.028;2024-01-30T03:51:34;51.33;44.71;67.70;;
77133;Laerm;26708;50.304;19.028;2024-01-30T03:53:38;47.83;44.91;51.43;;
77133;Laerm;26708;50.304;19.028;2024-01-30T03:55:44;48.17;45.32;52.04;;
77133;Laerm;26708;50.304;19.028;2024-01-30T03:57:48;48.27;44.52;63.40;;
77133;Laerm;26708;50.304;19.028;2024-01-30T03:59:50;48.10;44.65;53.04;;
77133;Laerm;26708;50.304;19.028;2024-01-30T04:01:58;47.95;44.63;52.50;;
77133;Laerm;26708;50.304;19.028;2024-01-30T04:04:02;48.38;45.28;53.22;;
77133;Laerm;26708;50.304;19.028;2024-01-30T04:06:07;48.34;44.87;54.76;;
77133;Laerm;26708;50.304;19.028;2024-01-30T04:08:12;48.50;45.43;52.46;;
77133;Laerm;26708;50.304;19.028;2024-01-30T04:10:17;48.16;45.32;55.57;;
77133;Laerm;26708;50.304;19.028;2024-01-30T04:12:21;54.10;45.74;70.48;;
77133;Laerm;26708;50.304;19.028;2024-01-30T04:14:27;48.36;45.21;54.36;;
77133;Laerm;26708;50.304;19.028;2024-01-30T04:16:29;48.55;45.28;54.19;;
77133;Laerm;26708;50.304;19.028;2024-01-30T04:18:36;52.75;45.58;70.14;;
77133;Laerm;26708;50.304;19.028;2024-01-30T04:20:39;48.11;45.16;53.56;;
77133;Laerm;26708;50.304;19.028;2024-01-30T04:22:43;47.87;44.98;51.27;;
77133;Laerm;26708;50.304;19.028;2024-01-30T04:24:46;48.05;44.47;51.21;;
77133;Laerm;26708;50.304;19.028;2024-01-30T04:26:51;48.37;44.76;52.99;;
77133;Laerm;26708;50.304;19.028;2024-01-30T04:28:53;48.20;45.38;51.76;;
77133;Laerm;26708;50.304;19.028;2024-01-30T04:30:57;49.10;45.33;53.41;;
77133;Laerm;26708;50.304;19.028;2024-01-30T04:33:03;51.93;45.50;65.29;;
77133;Laerm;26708;50.304;19.028;2024-01-30T04:35:10;50.72;45.40;64.66;;
77133;Laerm;26708;50.304;19.028;2024-01-30T04:37:15;52.49;45.91;68.70;;
77133;Laerm;26708;50.304;19.028;2024-01-30T04:39:20;56.64;44.21;73.45;;
77133;Laerm;26708;50.304;19.028;2024-01-30T04:41:25;49.13;45.82;51.62;;
77133;Laerm;26708;50.304;19.028;2024-01-30T04:43:32;48.86;45.83;52.48;;
77133;Laerm;26708;50.304;19.028;2024-01-30T04:45:38;51.10;45.39;64.72;;
77133;Laerm;26708;50.304;19.028;2024-01-30T04:47:42;49.03;45.63;52.29;;
77133;Laerm;26708;50.304;19.028;2024-01-30T04:49:47;53.47;46.45;66.71;;
77133;Laerm;26708;50.304;19.028;2024-01-30T04:51:55;53.12;46.51;69.26;;
77133;Laerm;26708;50.304;19.028;2024-01-30T04:54:02;52.78;45.50;65.49;;
77133;Laerm;26708;50.304;19.028;2024-01-30T04:56:07;48.95;46.01;52.61;;
77133;Laerm;26708;50.304;19.028;2024-01-30T04:58:12;54.14;46.27;68.86;;
77133;Laerm;26708;50.304;19.028;2024-01-30T05:00:17;48.92;46.00;52.84;;
77133;Laerm;26708;50.304;19.028;2024-01-30T05:02:21;52.86;46.45;66.26;;
77133;Laerm;26708;50.304;19.028;2024-01-30T05:04:24;52.01;46.45;67.64;;
77133;Laerm;26708;50.304;19.028;2024-01-30T05:06:28;50.79;45.00;65.71;;
77133;Laerm;26708;50.304;19.028;2024-01-30T05:08:34;52.58;45.50;65.67;;
77133;Laerm;26708;50.304;19.028;2024-01-30T05:10:39;56.67;45.88;73.97;;
77133;Laerm;26708;50.304;19.028;2024-01-30T05:12:43;50.12;46.56;55.47;;
77133;Laerm;26708;50.304;19.028;2024-01-30T05:14:48;55.23;46.22;70.09;;
77133;Laerm;26708;50.304;19.028;2024-01-30T05:16:53;55.91;46.23;68.07;;
77133;Laerm;26708;50.304;19.028;2024-01-30T05:18:58;55.19;45.78;68.11;;
77133;Laerm;26708;50.304;19.028;2024-01-30T05:21:05;53.81;46.17;69.84;;
77133;Laerm;26708;50.304;19.028;2024-01-30T05:23:11;53.71;46.96;66.59;;
77133;Laerm;26708;50.304;19.028;2024-01-30T05:25:18;51.10;45.60;64.66;;
77133;Laerm;26708;50.304;19.028;2024-01-30T05:27:22;53.65;46.47;65.73;;
77133;Laerm;26708;50.304;19.028;2024-01-30T05:29:28;55.40;47.09;66.68;;
77133;Laerm;26708;50.304;19.028;2024-01-30T05:31:32;60.11;47.65;75.83;;
77133;Laerm;26708;50.304;19.028;2024-01-30T05:33:37;56.92;46.94;68.72;;
77133;Laerm;26708;50.304;19.028;2024-01-30T05:35:40;58.98;46.84;69.84;;
77133;Laerm;26708;50.304;19.028;2024-01-30T05:37:44;55.60;46.25;72.29;;
77133;Laerm;26708;50.304;19.028;2024-01-30T05:39:49;57.13;46.77;72.08;;
77133;Laerm;26708;50.304;19.028;2024-01-30T05:41:58;55.08;47.52;73.77;;
77133;Laerm;26708;50.304;19.028;2024-01-30T05:44:02;54.16;46.78;67.84;;
77133;Laerm;26708;50.304;19.028;2024-01-30T05:46:07;57.91;46.75;72.25;;
77133;Laerm;26708;50.304;19.028;2024-01-30T05:48:09;53.62;45.90;66.32;;
77133;Laerm;26708;50.304;19.028;2024-01-30T05:50:14;56.32;46.53;68.00;;
77133;Laerm;26708;50.304;19.028;2024-01-30T05:52:19;56.14;46.50;66.37;;
77133;Laerm;26708;50.304;19.028;2024-01-30T05:54:25;57.09;46.25;68.57;;
77133;Laerm;26708;50.304;19.028;2024-01-30T05:56:43;56.32;46.05;70.19;;
77133;Laerm;26708;50.304;19.028;2024-01-30T05:58:51;56.13;46.31;68.85;;
77133;Laerm;26708;50.304;19.028;2024-01-30T06:00:57;58.04;46.89;76.67;;
77133;Laerm;26708;50.304;19.028;2024-01-30T06:03:02;58.76;47.85;71.39;;
77133;Laerm;26708;50.304;19.028;2024-01-30T06:05:05;54.40;46.20;68.49;;
77133;Laerm;26708;50.304;19.028;2024-01-30T06:07:10;54.54;46.40;67.88;;
77133;Laerm;26708;50.304;19.028;2024-01-30T06:09:12;54.31;46.48;66.91;;
77133;Laerm;26708;50.304;19.028;2024-01-30T06:11:17;57.05;46.52;70.33;;
77133;Laerm;26708;50.304;19.028;2024-01-30T06:13:22;54.54;45.95;68.23;;
77133;Laerm;26708;50.304;19.028;2024-01-30T06:15:29;57.24;45.99;70.50;;
77133;Laerm;26708;50.304;19.028;2024-01-30T06:17:34;53.89;46.56;65.75;;
77133;Laerm;26708;50.304;19.028;2024-01-30T06:19:36;56.10;46.15;70.99;;
77133;Laerm;26708;50.304;19.028;2024-01-30T06:21:41;52.16;47.02;64.25;;
77133;Laerm;26708;50.304;19.028;2024-01-30T06:23:45;58.81;46.74;71.79;;
77133;Laerm;26708;50.304;19.028;2024-01-30T06:25:48;67.00;47.94;79.58;;
77133;Laerm;26708;50.304;19.028;2024-01-30T06:27:52;61.79;46.63;78.22;;
77133;Laerm;26708;50.304;19.028;2024-01-30T06:29:56;56.82;46.55;72.51;;
77133;Laerm;26708;50.304;19.028;2024-01-30T06:32:06;55.34;46.78;67.37;;
77133;Laerm;26708;50.304;19.028;2024-01-30T06:34:10;56.84;48.41;68.31;;
77133;Laerm;26708;50.304;19.028;2024-01-30T06:36:15;55.43;47.57;70.96;;
77133;Laerm;26708;50.304;19.028;2024-01-30T06:38:20;55.49;46.58;65.48;;
77133;Laerm;26708;50.304;19.028;2024-01-30T06:40:25;57.62;48.02;68.77;;
77133;Laerm;26708;50.304;19.028;2024-01-30T06:42:30;55.49;46.90;68.94;;
77133;Laerm;26708;50.304;19.028;2024-01-30T06:44:35;56.58;46.99;71.72;;
77133;Laerm;26708;50.304;19.028;2024-01-30T06:46:39;60.02;47.59;73.11;;
77133;Laerm;26708;50.304;19.028;2024-01-30T06:48:46;56.98;47.33;71.07;;
77133;Laerm;26708;50.304;19.028;2024-01-30T06:50:53;54.88;47.35;68.60;;
77133;Laerm;26708;50.304;19.028;2024-01-30T06:52:59;55.89;47.12;68.75;;
77133;Laerm;26708;50.304;19.028;2024-01-30T06:55:04;57.75;47.42;69.40;;
77133;Laerm;26708;50.304;19.028;2024-01-30T06:57:06;56.88;48.18;68.34;;
77133;Laerm;26708;50.304;19.028;2024-01-30T06:59:13;58.35;47.17;69.63;;
77133;Laerm;26708;50.304;19.028;2024-01-30T07:01:15;59.11;47.33;71.26;;
77133;Laerm;26708;50.304;19.028;2024-01-30T07:03:20;55.16;46.42;70.00;;
77133;Laerm;26708;50.304;19.028;2024-01-30T07:05:28;55.84;46.68;68.86;;
77133;Laerm;26708;50.304;19.028;2024-01-30T07:07:32;59.00;46.57;71.75;;
77133;Laerm;26708;50.304;19.028;2024-01-30T07:09:38;58.72;46.41;73.00;;
77133;Laerm;26708;50.304;19.028;2024-01-30T07:11:42;56.29;46.30;69.19;;
77133;Laerm;26708;50.304;19.028;2024-01-30T07:13:47;54.54;46.73;66.87;;
77133;Laerm;26708;50.304;19.028;2024-01-30T07:15:52;58.64;46.34;73.09;;
77133;Laerm;26708;50.304;19.028;2024-01-30T07:17:57;52.16;45.33;68.33;;
77133;Laerm;26708;50.304;19.028;2024-01-30T07:20:02;54.39;45.86;68.79;;
77133;Laerm;26708;50.304;19.028;2024-01-30T07:22:11;53.45;46.45;66.13;;
77133;Laerm;26708;50.304;19.028;2024-01-30T07:24:15;57.29;46.70;75.05;;
77133;Laerm;26708;50.304;19.028;2024-01-30T07:26:19;55.13;46.54;70.05;;
77133;Laerm;26708;50.304;19.028;2024-01-30T07:28:25;53.91;46.35;68.64;;
77133;Laerm;26708;50.304;19.028;2024-01-30T07:30:29;59.14;47.37;76.01;;
77133;Laerm;26708;50.304;19.028;2024-01-30T07:32:34;56.28;46.30;70.90;;
77133;Laerm;26708;50.304;19.028;2024-01-30T07:34:39;56.40;46.33;67.45;;
77133;Laerm;26708;50.304;19.028;2024-01-30T07:36:43;54.45;46.94;66.35;;
77133;Laerm;26708;50.304;19.028;2024-01-30T07:38:48;57.25;46.57;73.10;;
77133;Laerm;26708;50.304;19.028;2024-01-30T07:40:54;59.55;46.36;74.34;;
77133;Laerm;26708;50.304;19.028;2024-01-30T07:42:59;57.48;46.77;74.32;;
77133;Laerm;26708;50.304;19.028;2024-01-30T07:45:06;57.94;47.15;69.84;;
77133;Laerm;26708;50.304;19.028;2024-01-30T07:47:11;57.25;46.87;69.62;;
77133;Laerm;26708;50.304;19.028;2024-01-30T07:49:15;57.97;46.84;70.26;;
77133;Laerm;26708;50.304;19.028;2024-01-30T07:51:20;57.59;47.55;70.93;;
77133;Laerm;26708;50.304;19.028;2024-01-30T07:53:25;57.46;47.66;66.70;;
77133;Laerm;26708;50.304;19.028;2024-01-30T07:55:32;57.11;46.51;68.21;;
77133;Laerm;26708;50.304;19.028;2024-01-30T07:57:38;57.29;46.58;68.11;;
77133;Laerm;26708;50.304;19.028;2024-01-30T07:59:45;59.01;47.02;75.17;;
77133;Laerm;26708;50.304;19.028;2024-01-30T08:01:47;53.86;47.09;66.41;;
77133;Laerm;26708;50.304;19.028;2024-01-30T08:03:51;57.56;46.53;70.00;;
77133;Laerm;26708;50.304;19.028;2024-01-30T08:05:56;54.13;46.75;67.50;;
77133;Laerm;26708;50.304;19.028;2024-01-30T08:08:01;59.49;46.57;79.33;;
77133;Laerm;26708;50.304;19.028;2024-01-30T08:10:07;61.39;47.27;72.36;;
77133;Laerm;26708;50.304;19.028;2024-01-30T08:12:13;58.18;46.89;69.73;;
77133;Laerm;26708;50.304;19.028;2024-01-30T08:14:17;57.80;47.23;71.46;;
77133;Laerm;26708;50.304;19.028;2024-01-30T08:16:21;54.75;46.80;67.24;;
77133;Laerm;26708;50.304;19.028;2024-01-30T08:18:27;55.83;47.19;66.11;;
77133;Laerm;26708;50.304;19.028;2024-01-30T08:20:31;56.96;47.02;69.16;;
77133;Laerm;26708;50.304;19.028;2024-01-30T08:22:33;56.56;46.55;71.63;;
77133;Laerm;26708;50.304;19.028;2024-01-30T08:24:38;57.11;47.29;68.31;;
77133;Laerm;26708;50.304;19.028;2024-01-30T08:26:42;57.59;47.27;71.07;;
77133;Laerm;26708;50.304;19.028;2024-01-30T08:28:50;56.89;46.95;67.88;;
77133;Laerm;26708;50.304;19.028;2024-01-30T08:30:55;60.83;50.44;74.25;;
77133;Laerm;26708;50.304;19.028;2024-01-30T08:33:00;60.77;48.83;75.64;;
77133;Laerm;26708;50.304;19.028;2024-01-30T08:35:02;56.69;48.59;68.06;;
77133;Laerm;26708;50.304;19.028;2024-01-30T08:37:08;59.15;48.71;72.16;;
77133;Laerm;26708;50.304;19.028;2024-01-30T08:39:13;58.90;47.43;69.66;;
77133;Laerm;26708;50.304;19.028;2024-01-30T08:41:17;55.34;46.95;68.50;;
77133;Laerm;26708;50.304;19.028;2024-01-30T08:43:22;59.06;47.85;70.85;;
77133;Laerm;26708;50.304;19.028;2024-01-30T08:45:30;56.89;48.62;68.63;;
77133;Laerm;26708;50.304;19.028;2024-01-30T08:47:34;58.78;48.01;72.04;;
77133;Laerm;26708;50.304;19.028;2024-01-30T08:49:39;59.14;48.21;71.94;;
77133;Laerm;26708;50.304;19.028;2024-01-30T08:51:41;60.27;48.69;71.38;;
77133;Laerm;26708;50.304;19.028;2024-01-30T08:53:46;56.01;48.34;66.81;;
77133;Laerm;26708;50.304;19.028;2024-01-30T08:55:51;57.38;48.31;70.82;;
77133;Laerm;26708;50.304;19.028;2024-01-30T08:57:56;59.16;47.84;71.04;;
77133;Laerm;26708;50.304;19.028;2024-01-30T09:00:01;57.79;47.25;70.75;;
77133;Laerm;26708;50.304;19.028;2024-01-30T09:02:11;57.35;47.83;69.44;;
77133;Laerm;26708;50.304;19.028;2024-01-30T09:04:17;55.72;47.57;70.94;;
77133;Laerm;26708;50.304;19.028;2024-01-30T09:06:21;56.38;47.27;67.19;;
77133;Laerm;26708;50.304;19.028;2024-01-30T09:08:28;57.19;48.70;70.13;;
77133;Laerm;26708;50.304;19.028;2024-01-30T09:10:33;61.78;48.57;77.30;;
77133;Laerm;26708;50.304;19.028;2024-01-30T09:12:37;57.81;47.70;69.95;;
77133;Laerm;26708;50.304;19.028;2024-01-30T09:14:42;54.51;47.42;65.73;;
77133;Laerm;26708;50.304;19.028;2024-01-30T09:16:47;57.23;47.54;68.28;;
77133;Laerm;26708;50.304;19.028;2024-01-30T09:18:54;59.36;48.00;70.68;;
77133;Laerm;26708;50.304;19.028;2024-01-30T09:20:57;58.90;48.17;74.63;;
77133;Laerm;26708;50.304;19.028;2024-01-30T09:23:02;57.83;48.38;70.48;;
77133;Laerm;26708;50.304;19.028;2024-01-30T09:25:07;57.22;47.55;68.56;;
77133;Laerm;26708;50.304;19.028;2024-01-30T09:27:12;58.35;48.54;69.96;;
77133;Laerm;26708;50.304;19.028;2024-01-30T09:29:17;55.59;47.32;71.75;;
77133;Laerm;26708;50.304;19.028;2024-01-30T09:31:19;57.07;47.73;66.14;;
77133;Laerm;26708;50.304;19.028;2024-01-30T09:33:24;60.34;48.46;74.32;;
77133;Laerm;26708;50.304;19.028;2024-01-30T09:35:31;57.42;47.43;68.27;;
77133;Laerm;26708;50.304;19.028;2024-01-30T09:37:35;59.50;47.49;73.14;;
77133;Laerm;26708;50.304;19.028;2024-01-30T09:39:38;58.45;47.84;72.51;;
77133;Laerm;26708;50.304;19.028;2024-01-30T09:41:48;56.24;46.76;68.72;;
77133;Laerm;26708;50.304;19.028;2024-01-30T09:43:51;58.57;47.47;78.77;;
77133;Laerm;26708;50.304;19.028;2024-01-30T09:46:02;54.19;46.69;65.64;;
77133;Laerm;26708;50.304;19.028;2024-01-30T09:48:07;58.81;47.60;73.35;;
77133;Laerm;26708;50.304;19.028;2024-01-30T09:50:14;54.84;47.60;65.35;;
77133;Laerm;26708;50.304;19.028;2024-01-30T09:52:22;57.32;47.62;67.40;;
77133;Laerm;26708;50.304;19.028;2024-01-30T09:54:30;57.38;47.49;67.85;;
77133;Laerm;26708;50.304;19.028;2024-01-30T09:56:34;58.35;46.90;81.86;;
77133;Laerm;26708;50.304;19.028;2024-01-30T09:58:39;58.38;47.42;83.54;;
77133;Laerm;26708;50.304;19.028;2024-01-30T10:00:44;59.52;48.05;77.60;;
77133;Laerm;26708;50.304;19.028;2024-01-30T10:02:48;64.49;46.56;75.44;;
77133;Laerm;26708;50.304;19.028;2024-01-30T10:04:54;60.08;46.93;85.33;;
77133;Laerm;26708;50.304;19.028;2024-01-30T10:07:01;59.99;47.82;81.00;;
77133;Laerm;26708;50.304;19.028;2024-01-30T10:09:09;57.97;47.02;79.32;;
77133;Laerm;26708;50.304;19.028;2024-01-30T10:11:15;61.87;47.34;82.94;;
77133;Laerm;26708;50.304;19.028;2024-01-30T10:13:20;58.40;46.50;69.54;;
77133;Laerm;26708;50.304;19.028;2024-01-30T10:15:26;56.18;47.19;68.66;;
77133;Laerm;26708;50.304;19.028;2024-01-30T10:17:32;57.84;46.82;71.31;;
77133;Laerm;26708;50.304;19.028;2024-01-30T10:19:52;60.85;47.44;70.88;;
77133;Laerm;26708;50.304;19.028;2024-01-30T10:22:00;60.24;47.36;68.81;;
77133;Laerm;26708;50.304;19.028;2024-01-30T10:24:10;59.47;47.45;68.38;;
77133;Laerm;26708;50.304;19.028;2024-01-30T10:26:16;57.78;47.61;67.92;;
77133;Laerm;26708;50.304;19.028;2024-01-30T10:28:21;59.72;46.82;67.85;;
77133;Laerm;26708;50.304;19.028;2024-01-30T10:30:25;59.36;46.39;73.23;;
77133;Laerm;26708;50.304;19.028;2024-01-30T10:32:30;58.48;46.55;69.67;;
77133;Laerm;26708;50.304;19.028;2024-01-30T10:34:34;58.85;47.85;69.13;;
77133;Laerm;26708;50.304;19.028;2024-01-30T10:36:40;58.86;47.23;68.58;;
77133;Laerm;26708;50.304;19.028;2024-01-30T10:38:49;57.72;46.24;69.40;;
77133;Laerm;26708;50.304;19.028;2024-01-30T10:41:00;55.36;46.35;70.29;;
77133;Laerm;26708;50.304;19.028;2024-01-30T10:43:15;58.14;47.69;68.26;;
77133;Laerm;26708;50.304;19.028;2024-01-30T10:45:23;58.18;48.95;66.49;;
77133;Laerm;26708;50.304;19.028;2024-01-30T10:47:30;57.37;46.18;68.15;;
77133;Laerm;26708;50.304;19.028;2024-01-30T10:49:36;58.13;47.45;68.31;;
77133;Laerm;26708;50.304;19.028;2024-01-30T10:51:43;56.70;47.31;68.21;;
77133;Laerm;26708;50.304;19.028;2024-01-30T10:53:49;58.71;46.53;69.87;;
77133;Laerm;26708;50.304;19.028;2024-01-30T10:56:01;57.61;46.34;72.02;;
77133;Laerm;26708;50.304;19.028;2024-01-30T10:58:09;57.40;47.44;67.43;;
77133;Laerm;26708;50.304;19.028;2024-01-30T11:00:18;60.89;47.80;73.91;;
77133;Laerm;26708;50.304;19.028;2024-01-30T11:02:27;60.37;48.37;71.24;;
77133;Laerm;26708;50.304;19.028;2024-01-30T11:04:36;56.48;47.93;67.83;;
77133;Laerm;26708;50.304;19.028;2024-01-30T11:06:41;57.98;47.58;69.55;;
77133;Laerm;26708;50.304;19.028;2024-01-30T11:09:00;58.20;47.04;70.11;;
77133;Laerm;26708;50.304;19.028;2024-01-30T11:11:10;57.70;47.82;70.30;;
77133;Laerm;26708;50.304;19.028;2024-01-30T11:13:15;59.42;47.87;74.11;;
77133;Laerm;26708;50.304;19.028;2024-01-30T11:15:21;59.45;46.66;73.56;;
77133;Laerm;26708;50.304;19.028;2024-01-30T11:17:28;56.83;46.86;70.53;;
77133;Laerm;26708;50.304;19.028;2024-01-30T11:19:32;54.78;46.23;72.11;;
77133;Laerm;26708;50.304;19.028;2024-01-30T11:21:42;59.06;46.37;71.59;;
77133;Laerm;26708;50.304;19.028;2024-01-30T11:23:46;55.31;46.52;67.49;;
77133;Laerm;26708;50.304;19.028;2024-01-30T11:25:53;56.38;46.59;71.60;;
77133;Laerm;26708;50.304;19.028;2024-01-30T11:28:01;56.33;45.63;69.08;;
77133;Laerm;26708;50.304;19.028;2024-01-30T11:30:08;57.19;45.70;72.09;;
77133;Laerm;26708;50.304;19.028;2024-01-30T11:32:22;56.81;46.70;69.29;;